Flight Track Log - Related Links

Times and Time Zones

All times are in EDT time to prevent confusion due to time zone crossing. See the DKT1576 flight status page for this flight to view local times or setup timezone preferences in your user account.

Time Position Orientation Groundspeed Altitude Reporting Facility
EDT Latitude Longitude Course Direction KTS MPH feet Rate Location/Type
Wed 07:46:12 AM 43.5825 -96.8372 265° West 89 102 3,800  Level Minneapolis Center
Wed 07:47:13 AM 43.5789 -96.8669 260° West 85 98 4,300 492 Climbing Minneapolis Center
Wed 07:48:14 AM 43.5772 -96.9036 266° West 85 98 4,800 492 Climbing Minneapolis Center
Wed 07:49:15 AM 43.5747 -96.9447 265° West 95 109 5,300 492 Climbing Minneapolis Center
Wed 07:50:00 AM 43.5565 -97.2082 265° West  Level FlightAware Approximate
Wed 07:50:16 AM 43.5722 -96.9867 265° West 102 117 5,800  Level Minneapolis Center
Wed 07:51:00 AM 43.5518 -97.2871 265° West  Level FlightAware Approximate
Wed 07:51:17 AM 43.5697 -97.0317 266° West 110 127 6,000  Level Minneapolis Center
Wed 07:52:18 AM 43.5683 -97.0847 268° West 121 139 6,000  Level Minneapolis Center
Wed 07:53:19 AM 43.5656 -97.1400 266° West 134 154 6,000  Level Minneapolis Center
Wed 07:54:20 AM 43.5631 -97.1983 267° West 143 165 6,000  Level Minneapolis Center
Wed 07:55:22 AM 43.5603 -97.2556 266° West 146 168 6,000  Level Minneapolis Center
Wed 07:56:23 AM 43.5572 -97.3250 267° West 147 169 6,000  Level Minneapolis Center
Wed 07:57:24 AM 43.5556 -97.3831 268° West 147 169 6,000  Level Minneapolis Center
Wed 07:58:25 AM 43.5492 -97.4375 261° West 148 170 6,000  Level Minneapolis Center
Wed 07:59:27 AM 43.5458 -97.4958 266° West 148 170 6,000  Level Minneapolis Center
Wed 08:00:28 AM 43.5414 -97.5547 264° West 151 174 6,000  Level Minneapolis Center
Wed 08:01:29 AM 43.5378 -97.6128 265° West 151 174 6,000  Level Minneapolis Center
Wed 08:02:30 AM 43.5344 -97.6711 266° West 151 174 6,000  Level Minneapolis Center
Wed 08:03:32 AM 43.5328 -97.7314 268° West 151 174 6,000  Level Minneapolis Center
Wed 08:04:33 AM 43.5289 -97.7914 265° West 153 176 6,000  Level Minneapolis Center
Wed 08:05:34 AM 43.5231 -97.8600 263° West 153 176 6,000 -49 Level Minneapolis Center
Wed 08:06:36 AM 43.5178 -97.9175 263° West 153 176 5,900 -49 Descending Minneapolis Center
Wed 08:07:37 AM 43.5111 -97.9736 261° West 152 175 5,900  Level Minneapolis Center
Wed 08:08:38 AM 43.5078 -98.0317 265° West 152 175 5,900 49 Level Minneapolis Center
Wed 08:09:40 AM 43.5028 -98.0894 263° West 152 175 6,000  Climbing Minneapolis Center
Wed 08:10:41 AM 43.5022 -98.1469 269° West 152 175 5,900 -49 Descending Minneapolis Center
Wed 08:11:43 AM 43.5033 -98.2050 272° West 152 175 5,900  Level Minneapolis Center
Wed 08:12:44 AM 43.5028 -98.2628 269° West 152 175 5,900  Level Minneapolis Center
Wed 08:13:46 AM 43.5022 -98.3211 269° West 152 175 5,900  Level Minneapolis Center
Wed 08:14:47 AM 43.4958 -98.3897 263° West 152 175 5,900  Level Minneapolis Center
Wed 08:15:49 AM 43.4919 -98.4472 265° West 152 175 5,900  Level Minneapolis Center
Wed 08:16:50 AM 43.4861 -98.5053 262° West 152 175 5,900  Level Minneapolis Center
Wed 08:17:52 AM 43.4814 -98.5597 263° West 152 175 5,900  Level Minneapolis Center
Wed 08:18:53 AM 43.4753 -98.6172 262° West 152 175 5,900  Level Minneapolis Center
Wed 08:19:55 AM 43.4703 -98.6744 263° West 152 175 5,900  Level Minneapolis Center
Wed 08:20:57 AM 43.4656 -98.7411 264° West 152 175 5,900  Level Minneapolis Center
Wed 08:21:58 AM 43.4606 -98.8019 264° West 152 175 5,900  Level Minneapolis Center
Wed 08:23:00 AM 43.4547 -98.8628 262° West 153 176 5,900  Level Minneapolis Center
Wed 08:24:02 AM 43.4517 -98.9186 266° West 153 176 5,900  Level Minneapolis Center
Wed 08:25:03 AM 43.4467 -98.9775 263° West 153 176 5,900  Level Minneapolis Center
Wed 08:26:05 AM 43.4431 -99.0339 265° West 153 176 5,900  Level Minneapolis Center
Wed 08:27:07 AM 43.4392 -99.0931 265° West 153 176 5,900  Level Minneapolis Center
Wed 08:28:09 AM 43.4333 -99.1650 264° West 153 176 5,900  Level Minneapolis Center
Wed 08:30:00 AM 43.4278 -99.2672 266° West  Level FlightAware Approximate
Wed 08:37:00 AM 43.3941 -99.6508 265° West  Level FlightAware Approximate
Wed 08:38:00 AM 43.3909 -99.7060 265° West  Level FlightAware Approximate
Wed 08:39:00 AM 43.3876 -99.7612 265° West  Level FlightAware Approximate
Wed 08:40:00 AM 43.3843 -99.8163 265° West  Level FlightAware Approximate
Wed 08:41:00 AM 43.3833 -99.8333 265° West  Level FlightAware Approximate
Wed 08:42:00 AM 43.3903 -99.8422 317° Northwest  Level Estimated

Login

Don't have an account? Register now (free) for customized features, flight alerts, and more!